sensor_id;sensor_type;location;lat;lon;timestamp;P1;durP1;ratioP1;P2;durP2;ratioP2
15061;SDS011;7630;50.306;8.566;2023-07-20T00:03:58;4.10;;;3.70;;
15061;SDS011;7630;50.306;8.566;2023-07-20T00:07:59;6.73;;;3.90;;
15061;SDS011;7630;50.306;8.566;2023-07-20T00:12:00;3.63;;;3.00;;
15061;SDS011;7630;50.306;8.566;2023-07-20T00:16:01;3.60;;;3.30;;
15061;SDS011;7630;50.306;8.566;2023-07-20T00:20:03;5.80;;;3.47;;
15061;SDS011;7630;50.306;8.566;2023-07-20T00:24:06;6.70;;;3.70;;
15061;SDS011;7630;50.306;8.566;2023-07-20T00:28:07;4.37;;;3.87;;
15061;SDS011;7630;50.306;8.566;2023-07-20T00:32:08;5.20;;;3.83;;
15061;SDS011;7630;50.306;8.566;2023-07-20T00:36:09;5.30;;;3.97;;
15061;SDS011;7630;50.306;8.566;2023-07-20T00:40:10;6.10;;;4.30;;
15061;SDS011;7630;50.306;8.566;2023-07-20T00:44:11;11.30;;;4.40;;
15061;SDS011;7630;50.306;8.566;2023-07-20T00:48:13;5.50;;;4.63;;
15061;SDS011;7630;50.306;8.566;2023-07-20T00:52:15;7.60;;;4.83;;
15061;SDS011;7630;50.306;8.566;2023-07-20T00:56:18;4.67;;;4.27;;
15061;SDS011;7630;50.306;8.566;2023-07-20T01:00:20;6.40;;;4.60;;
15061;SDS011;7630;50.306;8.566;2023-07-20T01:04:21;6.20;;;4.57;;
15061;SDS011;7630;50.306;8.566;2023-07-20T01:12:43;6.57;;;4.97;;
15061;SDS011;7630;50.306;8.566;2023-07-20T01:16:46;9.97;;;4.67;;
15061;SDS011;7630;50.306;8.566;2023-07-20T01:20:49;9.37;;;5.23;;
15061;SDS011;7630;50.306;8.566;2023-07-20T01:24:56;5.33;;;4.83;;
15061;SDS011;7630;50.306;8.566;2023-07-20T01:33:05;5.67;;;4.53;;
15061;SDS011;7630;50.306;8.566;2023-07-20T01:37:08;7.60;;;5.13;;
15061;SDS011;7630;50.306;8.566;2023-07-20T01:41:11;6.43;;;4.93;;
15061;SDS011;7630;50.306;8.566;2023-07-20T01:45:12;8.03;;;4.87;;
15061;SDS011;7630;50.306;8.566;2023-07-20T01:49:14;6.50;;;4.57;;
15061;SDS011;7630;50.306;8.566;2023-07-20T01:53:15;5.20;;;4.70;;
15061;SDS011;7630;50.306;8.566;2023-07-20T01:57:16;7.57;;;4.77;;
15061;SDS011;7630;50.306;8.566;2023-07-20T02:01:17;8.17;;;4.63;;
15061;SDS011;7630;50.306;8.566;2023-07-20T02:05:18;6.43;;;5.07;;
15061;SDS011;7630;50.306;8.566;2023-07-20T02:09:20;6.10;;;4.90;;
15061;SDS011;7630;50.306;8.566;2023-07-20T02:13:21;7.67;;;5.37;;
15061;SDS011;7630;50.306;8.566;2023-07-20T02:17:22;9.70;;;4.93;;
15061;SDS011;7630;50.306;8.566;2023-07-20T02:21:23;11.00;;;5.10;;
15061;SDS011;7630;50.306;8.566;2023-07-20T02:25:25;7.03;;;5.80;;
15061;SDS011;7630;50.306;8.566;2023-07-20T02:29:26;8.67;;;5.87;;
15061;SDS011;7630;50.306;8.566;2023-07-20T02:33:27;6.37;;;5.30;;
15061;SDS011;7630;50.306;8.566;2023-07-20T02:37:28;9.23;;;6.80;;
15061;SDS011;7630;50.306;8.566;2023-07-20T02:41:32;10.13;;;5.30;;
15061;SDS011;7630;50.306;8.566;2023-07-20T02:45:35;8.07;;;5.70;;
15061;SDS011;7630;50.306;8.566;2023-07-20T02:49:38;9.87;;;5.80;;
15061;SDS011;7630;50.306;8.566;2023-07-20T02:53:39;5.93;;;5.23;;
15061;SDS011;7630;50.306;8.566;2023-07-20T02:57:40;10.03;;;5.93;;
15061;SDS011;7630;50.306;8.566;2023-07-20T03:01:41;6.73;;;5.43;;
15061;SDS011;7630;50.306;8.566;2023-07-20T03:05:45;7.27;;;5.93;;
15061;SDS011;7630;50.306;8.566;2023-07-20T03:09:46;6.60;;;5.97;;
15061;SDS011;7630;50.306;8.566;2023-07-20T03:13:47;5.70;;;5.20;;
15061;SDS011;7630;50.306;8.566;2023-07-20T03:17:48;9.60;;;6.10;;
15061;SDS011;7630;50.306;8.566;2023-07-20T03:21:49;7.40;;;6.13;;
15061;SDS011;7630;50.306;8.566;2023-07-20T03:25:51;7.37;;;6.63;;
15061;SDS011;7630;50.306;8.566;2023-07-20T03:29:54;6.07;;;4.97;;
15061;SDS011;7630;50.306;8.566;2023-07-20T03:33:55;5.27;;;4.77;;
15061;SDS011;7630;50.306;8.566;2023-07-20T03:37:56;6.57;;;5.27;;
15061;SDS011;7630;50.306;8.566;2023-07-20T03:41:58;4.27;;;3.87;;
15061;SDS011;7630;50.306;8.566;2023-07-20T03:46:00;7.27;;;5.13;;
15061;SDS011;7630;50.306;8.566;2023-07-20T03:50:01;5.40;;;4.90;;
15061;SDS011;7630;50.306;8.566;2023-07-20T03:54:02;6.17;;;5.57;;
15061;SDS011;7630;50.306;8.566;2023-07-20T03:58:07;5.40;;;4.90;;
15061;SDS011;7630;50.306;8.566;2023-07-20T04:02:08;5.70;;;4.73;;
15061;SDS011;7630;50.306;8.566;2023-07-20T04:06:09;4.80;;;4.40;;
15061;SDS011;7630;50.306;8.566;2023-07-20T04:10:11;5.67;;;5.07;;
15061;SDS011;7630;50.306;8.566;2023-07-20T04:14:12;5.37;;;4.97;;
15061;SDS011;7630;50.306;8.566;2023-07-20T04:18:13;5.73;;;4.63;;
15061;SDS011;7630;50.306;8.566;2023-07-20T04:22:14;5.87;;;4.17;;
15061;SDS011;7630;50.306;8.566;2023-07-20T04:26:16;4.33;;;4.03;;
15061;SDS011;7630;50.306;8.566;2023-07-20T04:30:17;5.00;;;4.40;;
15061;SDS011;7630;50.306;8.566;2023-07-20T04:34:20;5.77;;;5.27;;
15061;SDS011;7630;50.306;8.566;2023-07-20T04:38:21;5.03;;;4.57;;
15061;SDS011;7630;50.306;8.566;2023-07-20T04:42:23;4.70;;;4.40;;
15061;SDS011;7630;50.306;8.566;2023-07-20T04:46:24;4.73;;;4.37;;
15061;SDS011;7630;50.306;8.566;2023-07-20T04:50:25;5.00;;;4.63;;
15061;SDS011;7630;50.306;8.566;2023-07-20T04:54:27;4.83;;;4.37;;
15061;SDS011;7630;50.306;8.566;2023-07-20T04:58:28;6.40;;;4.60;;
15061;SDS011;7630;50.306;8.566;2023-07-20T05:02:29;5.07;;;4.37;;
15061;SDS011;7630;50.306;8.566;2023-07-20T05:06:30;7.30;;;4.30;;
15061;SDS011;7630;50.306;8.566;2023-07-20T05:10:31;5.27;;;4.57;;
15061;SDS011;7630;50.306;8.566;2023-07-20T05:14:33;5.07;;;4.67;;
15061;SDS011;7630;50.306;8.566;2023-07-20T05:18:34;5.77;;;5.13;;
15061;SDS011;7630;50.306;8.566;2023-07-20T05:22:36;6.03;;;5.13;;
15061;SDS011;7630;50.306;8.566;2023-07-20T05:26:39;4.50;;;4.10;;
15061;SDS011;7630;50.306;8.566;2023-07-20T05:30:40;5.83;;;4.23;;
15061;SDS011;7630;50.306;8.566;2023-07-20T05:34:41;5.67;;;5.07;;
15061;SDS011;7630;50.306;8.566;2023-07-20T05:38:42;5.10;;;4.17;;
15061;SDS011;7630;50.306;8.566;2023-07-20T05:42:43;4.80;;;4.07;;
15061;SDS011;7630;50.306;8.566;2023-07-20T05:46:45;6.33;;;4.40;;
15061;SDS011;7630;50.306;8.566;2023-07-20T05:50:48;4.33;;;3.97;;
15061;SDS011;7630;50.306;8.566;2023-07-20T05:54:50;5.50;;;4.20;;
15061;SDS011;7630;50.306;8.566;2023-07-20T05:58:51;6.13;;;4.20;;
15061;SDS011;7630;50.306;8.566;2023-07-20T06:02:53;5.83;;;4.77;;
15061;SDS011;7630;50.306;8.566;2023-07-20T06:06:55;7.83;;;4.97;;
15061;SDS011;7630;50.306;8.566;2023-07-20T06:10:56;4.70;;;4.17;;
15061;SDS011;7630;50.306;8.566;2023-07-20T06:15:01;5.33;;;4.63;;
15061;SDS011;7630;50.306;8.566;2023-07-20T06:19:04;6.43;;;3.67;;
15061;SDS011;7630;50.306;8.566;2023-07-20T06:23:06;3.70;;;3.10;;
15061;SDS011;7630;50.306;8.566;2023-07-20T06:27:07;5.60;;;3.50;;
15061;SDS011;7630;50.306;8.566;2023-07-20T06:31:08;4.50;;;4.20;;
15061;SDS011;7630;50.306;8.566;2023-07-20T06:35:09;6.90;;;5.30;;
15061;SDS011;7630;50.306;8.566;2023-07-20T06:39:11;6.83;;;5.33;;
15061;SDS011;7630;50.306;8.566;2023-07-20T06:43:14;5.93;;;5.47;;
15061;SDS011;7630;50.306;8.566;2023-07-20T06:47:17;6.90;;;6.20;;
15061;SDS011;7630;50.306;8.566;2023-07-20T06:51:18;7.13;;;5.50;;
15061;SDS011;7630;50.306;8.566;2023-07-20T06:55:19;6.67;;;5.47;;
15061;SDS011;7630;50.306;8.566;2023-07-20T06:59:22;5.47;;;4.97;;
15061;SDS011;7630;50.306;8.566;2023-07-20T07:03:24;7.27;;;6.17;;
15061;SDS011;7630;50.306;8.566;2023-07-20T07:07:27;9.10;;;5.73;;
15061;SDS011;7630;50.306;8.566;2023-07-20T07:11:29;5.83;;;5.33;;
15061;SDS011;7630;50.306;8.566;2023-07-20T07:15:30;7.77;;;5.60;;
15061;SDS011;7630;50.306;8.566;2023-07-20T07:19:33;6.70;;;5.20;;
15061;SDS011;7630;50.306;8.566;2023-07-20T07:23:34;5.33;;;4.90;;
15061;SDS011;7630;50.306;8.566;2023-07-20T07:27:35;7.83;;;4.97;;
15061;SDS011;7630;50.306;8.566;2023-07-20T07:31:36;5.43;;;4.73;;
15061;SDS011;7630;50.306;8.566;2023-07-20T07:35:39;6.73;;;4.27;;
15061;SDS011;7630;50.306;8.566;2023-07-20T07:39:40;5.43;;;4.93;;
15061;SDS011;7630;50.306;8.566;2023-07-20T07:43:41;5.80;;;5.00;;
15061;SDS011;7630;50.306;8.566;2023-07-20T07:47:43;5.33;;;4.83;;
15061;SDS011;7630;50.306;8.566;2023-07-20T07:51:44;6.13;;;5.57;;
15061;SDS011;7630;50.306;8.566;2023-07-20T07:55:47;5.57;;;4.50;;
15061;SDS011;7630;50.306;8.566;2023-07-20T07:59:48;5.63;;;4.77;;
15061;SDS011;7630;50.306;8.566;2023-07-20T08:03:50;8.27;;;5.93;;
15061;SDS011;7630;50.306;8.566;2023-07-20T08:07:52;6.17;;;5.77;;
15061;SDS011;7630;50.306;8.566;2023-07-20T08:11:53;6.60;;;6.10;;
15061;SDS011;7630;50.306;8.566;2023-07-20T08:15:54;9.33;;;7.03;;
15061;SDS011;7630;50.306;8.566;2023-07-20T08:19:55;7.63;;;5.33;;
15061;SDS011;7630;50.306;8.566;2023-07-20T08:23:57;5.30;;;4.37;;
15061;SDS011;7630;50.306;8.566;2023-07-20T08:27:58;5.30;;;4.87;;
15061;SDS011;7630;50.306;8.566;2023-07-20T08:32:01;6.80;;;5.20;;
15061;SDS011;7630;50.306;8.566;2023-07-20T08:36:03;10.27;;;6.73;;
15061;SDS011;7630;50.306;8.566;2023-07-20T08:40:04;6.80;;;5.40;;
15061;SDS011;7630;50.306;8.566;2023-07-20T08:44:08;5.80;;;4.43;;
15061;SDS011;7630;50.306;8.566;2023-07-20T08:48:10;6.37;;;5.07;;
15061;SDS011;7630;50.306;8.566;2023-07-20T08:52:12;5.93;;;5.33;;
15061;SDS011;7630;50.306;8.566;2023-07-20T08:56:14;5.03;;;4.63;;
15061;SDS011;7630;50.306;8.566;2023-07-20T09:00:17;5.03;;;4.43;;
15061;SDS011;7630;50.306;8.566;2023-07-20T09:04:20;5.20;;;4.77;;
15061;SDS011;7630;50.306;8.566;2023-07-20T09:08:22;12.20;;;5.77;;
15061;SDS011;7630;50.306;8.566;2023-07-20T09:12:23;5.07;;;4.10;;
15061;SDS011;7630;50.306;8.566;2023-07-20T09:16:24;5.20;;;4.80;;
15061;SDS011;7630;50.306;8.566;2023-07-20T09:20:26;5.33;;;4.80;;
15061;SDS011;7630;50.306;8.566;2023-07-20T09:24:28;6.43;;;3.63;;
15061;SDS011;7630;50.306;8.566;2023-07-20T09:28:30;6.10;;;5.50;;
15061;SDS011;7630;50.306;8.566;2023-07-20T09:32:45;8.53;;;4.83;;
15061;SDS011;7630;50.306;8.566;2023-07-20T09:36:45;4.13;;;3.77;;
15061;SDS011;7630;50.306;8.566;2023-07-20T09:40:50;4.73;;;4.20;;
15061;SDS011;7630;50.306;8.566;2023-07-20T09:44:53;4.07;;;3.63;;
15061;SDS011;7630;50.306;8.566;2023-07-20T09:48:54;5.37;;;4.87;;
15061;SDS011;7630;50.306;8.566;2023-07-20T09:52:58;4.53;;;3.90;;
15061;SDS011;7630;50.306;8.566;2023-07-20T09:57:03;4.70;;;3.37;;
15061;SDS011;7630;50.306;8.566;2023-07-20T10:01:04;5.70;;;4.77;;
15061;SDS011;7630;50.306;8.566;2023-07-20T10:05:08;5.77;;;3.70;;
15061;SDS011;7630;50.306;8.566;2023-07-20T10:09:12;4.97;;;4.57;;
15061;SDS011;7630;50.306;8.566;2023-07-20T10:13:17;7.00;;;4.13;;
15061;SDS011;7630;50.306;8.566;2023-07-20T10:17:19;3.43;;;3.13;;
15061;SDS011;7630;50.306;8.566;2023-07-20T10:21:22;3.43;;;3.13;;
15061;SDS011;7630;50.306;8.566;2023-07-20T10:25:26;4.50;;;2.67;;
15061;SDS011;7630;50.306;8.566;2023-07-20T10:29:27;5.37;;;3.30;;
15061;SDS011;7630;50.306;8.566;2023-07-20T10:33:30;5.43;;;2.40;;
15061;SDS011;7630;50.306;8.566;2023-07-20T10:37:51;4.90;;;2.60;;
15061;SDS011;7630;50.306;8.566;2023-07-20T10:42:03;3.47;;;2.30;;
15061;SDS011;7630;50.306;8.566;2023-07-20T10:46:10;3.93;;;2.83;;
15061;SDS011;7630;50.306;8.566;2023-07-20T10:50:13;2.30;;;2.10;;
15061;SDS011;7630;50.306;8.566;2023-07-20T10:58:22;7.17;;;2.20;;
15061;SDS011;7630;50.306;8.566;2023-07-20T11:02:25;2.03;;;1.77;;
15061;SDS011;7630;50.306;8.566;2023-07-20T11:10:30;2.53;;;2.33;;
15061;SDS011;7630;50.306;8.566;2023-07-20T11:14:31;1.73;;;1.63;;
15061;SDS011;7630;50.306;8.566;2023-07-20T11:18:34;2.00;;;1.90;;
15061;SDS011;7630;50.306;8.566;2023-07-20T11:22:37;3.03;;;2.43;;
15061;SDS011;7630;50.306;8.566;2023-07-20T11:26:39;2.37;;;1.43;;
15061;SDS011;7630;50.306;8.566;2023-07-20T11:30:43;2.23;;;1.93;;
15061;SDS011;7630;50.306;8.566;2023-07-20T11:34:46;3.93;;;1.70;;
15061;SDS011;7630;50.306;8.566;2023-07-20T11:38:48;3.73;;;2.13;;
15061;SDS011;7630;50.306;8.566;2023-07-20T11:42:49;3.77;;;1.90;;
15061;SDS011;7630;50.306;8.566;2023-07-20T11:46:59;4.40;;;2.10;;
15061;SDS011;7630;50.306;8.566;2023-07-20T11:51:04;1.83;;;1.73;;
15061;SDS011;7630;50.306;8.566;2023-07-20T11:55:06;1.83;;;1.73;;
15061;SDS011;7630;50.306;8.566;2023-07-20T11:59:08;1.73;;;1.50;;
15061;SDS011;7630;50.306;8.566;2023-07-20T12:03:09;1.57;;;1.30;;
15061;SDS011;7630;50.306;8.566;2023-07-20T12:07:11;1.27;;;1.17;;
15061;SDS011;7630;50.306;8.566;2023-07-20T12:11:12;5.30;;;1.50;;
15061;SDS011;7630;50.306;8.566;2023-07-20T12:15:14;1.20;;;1.10;;
15061;SDS011;7630;50.306;8.566;2023-07-20T12:19:20;1.40;;;1.20;;
15061;SDS011;7630;50.306;8.566;2023-07-20T12:23:21;1.87;;;1.77;;
15061;SDS011;7630;50.306;8.566;2023-07-20T12:27:27;1.33;;;1.20;;
15061;SDS011;7630;50.306;8.566;2023-07-20T12:31:28;2.47;;;1.30;;
15061;SDS011;7630;50.306;8.566;2023-07-20T12:35:30;4.20;;;1.80;;
15061;SDS011;7630;50.306;8.566;2023-07-20T12:39:32;1.23;;;1.00;;
15061;SDS011;7630;50.306;8.566;2023-07-20T12:43:33;1.40;;;1.30;;
15061;SDS011;7630;50.306;8.566;2023-07-20T12:47:34;1.40;;;1.30;;
15061;SDS011;7630;50.306;8.566;2023-07-20T12:51:36;1.57;;;1.43;;
15061;SDS011;7630;50.306;8.566;2023-07-20T12:55:37;1.33;;;1.23;;
15061;SDS011;7630;50.306;8.566;2023-07-20T12:59:40;1.60;;;1.00;;
15061;SDS011;7630;50.306;8.566;2023-07-20T13:03:41;2.70;;;1.00;;
15061;SDS011;7630;50.306;8.566;2023-07-20T13:07:44;1.50;;;1.40;;
15061;SDS011;7630;50.306;8.566;2023-07-20T13:11:48;1.00;;;1.00;;
15061;SDS011;7630;50.306;8.566;2023-07-20T13:15:49;1.50;;;1.40;;
15061;SDS011;7630;50.306;8.566;2023-07-20T13:19:51;2.17;;;1.20;;
15061;SDS011;7630;50.306;8.566;2023-07-20T13:23:52;2.70;;;1.77;;
15061;SDS011;7630;50.306;8.566;2023-07-20T13:27:53;3.43;;;2.03;;
15061;SDS011;7630;50.306;8.566;2023-07-20T13:31:55;2.10;;;1.63;;
15061;SDS011;7630;50.306;8.566;2023-07-20T13:35:56;3.20;;;2.10;;
15061;SDS011;7630;50.306;8.566;2023-07-20T13:39:57;2.10;;;1.23;;
15061;SDS011;7630;50.306;8.566;2023-07-20T13:43:58;1.77;;;1.60;;
15061;SDS011;7630;50.306;8.566;2023-07-20T13:48:00;4.10;;;1.43;;
15061;SDS011;7630;50.306;8.566;2023-07-20T13:52:03;3.70;;;2.10;;
15061;SDS011;7630;50.306;8.566;2023-07-20T13:56:06;1.80;;;1.37;;
15061;SDS011;7630;50.306;8.566;2023-07-20T14:00:10;1.50;;;1.40;;
15061;SDS011;7630;50.306;8.566;2023-07-20T14:04:11;2.70;;;2.17;;
15061;SDS011;7630;50.306;8.566;2023-07-20T14:08:13;1.17;;;1.17;;
15061;SDS011;7630;50.306;8.566;2023-07-20T14:12:14;3.33;;;1.60;;
15061;SDS011;7630;50.306;8.566;2023-07-20T14:16:17;1.50;;;1.40;;
15061;SDS011;7630;50.306;8.566;2023-07-20T14:20:20;3.37;;;1.60;;
15061;SDS011;7630;50.306;8.566;2023-07-20T14:24:23;2.57;;;1.50;;
15061;SDS011;7630;50.306;8.566;2023-07-20T14:28:24;2.73;;;1.80;;
15061;SDS011;7630;50.306;8.566;2023-07-20T14:32:25;2.27;;;2.07;;
15061;SDS011;7630;50.306;8.566;2023-07-20T14:36:27;2.63;;;1.93;;
15061;SDS011;7630;50.306;8.566;2023-07-20T14:40:29;4.47;;;1.90;;
15061;SDS011;7630;50.306;8.566;2023-07-20T14:44:30;1.77;;;1.67;;
15061;SDS011;7630;50.306;8.566;2023-07-20T14:48:33;2.53;;;2.23;;
15061;SDS011;7630;50.306;8.566;2023-07-20T14:52:35;2.70;;;1.90;;
15061;SDS011;7630;50.306;8.566;2023-07-20T14:56:37;2.43;;;1.40;;
15061;SDS011;7630;50.306;8.566;2023-07-20T15:00:39;1.93;;;1.47;;
15061;SDS011;7630;50.306;8.566;2023-07-20T15:04:47;1.53;;;1.43;;
15061;SDS011;7630;50.306;8.566;2023-07-20T15:08:49;1.70;;;1.60;;
15061;SDS011;7630;50.306;8.566;2023-07-20T15:12:50;1.80;;;1.70;;
15061;SDS011;7630;50.306;8.566;2023-07-20T15:16:52;4.97;;;1.70;;
15061;SDS011;7630;50.306;8.566;2023-07-20T15:20:53;2.70;;;1.83;;
15061;SDS011;7630;50.306;8.566;2023-07-20T15:24:54;3.33;;;1.60;;
15061;SDS011;7630;50.306;8.566;2023-07-20T15:28:56;2.63;;;1.83;;
15061;SDS011;7630;50.306;8.566;2023-07-20T15:32:57;3.33;;;1.83;;
15061;SDS011;7630;50.306;8.566;2023-07-20T15:37:00;2.70;;;1.77;;
15061;SDS011;7630;50.306;8.566;2023-07-20T15:41:01;1.97;;;1.77;;
15061;SDS011;7630;50.306;8.566;2023-07-20T15:45:02;2.07;;;1.87;;
15061;SDS011;7630;50.306;8.566;2023-07-20T15:49:04;3.27;;;1.50;;
15061;SDS011;7630;50.306;8.566;2023-07-20T15:53:06;1.67;;;1.57;;
15061;SDS011;7630;50.306;8.566;2023-07-20T15:57:07;2.00;;;1.30;;
15061;SDS011;7630;50.306;8.566;2023-07-20T16:01:11;4.53;;;1.90;;
15061;SDS011;7630;50.306;8.566;2023-07-20T16:05:12;3.73;;;1.60;;
15061;SDS011;7630;50.306;8.566;2023-07-20T16:09:15;2.13;;;1.80;;
15061;SDS011;7630;50.306;8.566;2023-07-20T16:13:16;1.93;;;1.83;;
15061;SDS011;7630;50.306;8.566;2023-07-20T16:17:17;2.67;;;1.90;;
15061;SDS011;7630;50.306;8.566;2023-07-20T16:21:18;2.50;;;2.10;;
15061;SDS011;7630;50.306;8.566;2023-07-20T16:25:19;2.53;;;1.87;;
15061;SDS011;7630;50.306;8.566;2023-07-20T16:29:20;1.50;;;1.40;;
15061;SDS011;7630;50.306;8.566;2023-07-20T16:33:24;3.40;;;1.90;;
15061;SDS011;7630;50.306;8.566;2023-07-20T16:37:25;2.60;;;1.37;;
15061;SDS011;7630;50.306;8.566;2023-07-20T16:41:28;3.73;;;1.90;;
15061;SDS011;7630;50.306;8.566;2023-07-20T16:45:34;1.67;;;1.57;;
15061;SDS011;7630;50.306;8.566;2023-07-20T16:49:36;1.93;;;1.83;;
15061;SDS011;7630;50.306;8.566;2023-07-20T16:53:37;2.10;;;1.83;;
15061;SDS011;7630;50.306;8.566;2023-07-20T16:57:38;1.80;;;1.70;;
15061;SDS011;7630;50.306;8.566;2023-07-20T17:01:39;4.23;;;2.23;;
15061;SDS011;7630;50.306;8.566;2023-07-20T17:05:44;3.10;;;1.90;;
15061;SDS011;7630;50.306;8.566;2023-07-20T17:09:45;3.00;;;2.10;;
15061;SDS011;7630;50.306;8.566;2023-07-20T17:13:47;2.40;;;2.20;;
15061;SDS011;7630;50.306;8.566;2023-07-20T17:17:48;2.57;;;2.13;;
15061;SDS011;7630;50.306;8.566;2023-07-20T17:21:51;3.90;;;2.67;;
15061;SDS011;7630;50.306;8.566;2023-07-20T17:25:52;2.30;;;2.10;;
15061;SDS011;7630;50.306;8.566;2023-07-20T17:29:55;3.20;;;2.27;;
15061;SDS011;7630;50.306;8.566;2023-07-20T17:33:58;2.57;;;2.37;;
15061;SDS011;7630;50.306;8.566;2023-07-20T17:38:00;4.43;;;2.77;;
15061;SDS011;7630;50.306;8.566;2023-07-20T17:42:03;2.30;;;2.10;;
15061;SDS011;7630;50.306;8.566;2023-07-20T17:46:06;3.17;;;2.93;;
15061;SDS011;7630;50.306;8.566;2023-07-20T17:50:09;3.23;;;2.37;;
15061;SDS011;7630;50.306;8.566;2023-07-20T17:54:15;3.87;;;2.43;;
15061;SDS011;7630;50.306;8.566;2023-07-20T17:58:16;2.73;;;2.57;;
15061;SDS011;7630;50.306;8.566;2023-07-20T18:02:17;2.33;;;2.13;;
15061;SDS011;7630;50.306;8.566;2023-07-20T18:06:18;2.40;;;2.20;;
15061;SDS011;7630;50.306;8.566;2023-07-20T18:10:20;2.73;;;2.50;;
15061;SDS011;7630;50.306;8.566;2023-07-20T18:14:21;3.17;;;2.87;;
15061;SDS011;7630;50.306;8.566;2023-07-20T18:18:22;3.07;;;2.67;;
15061;SDS011;7630;50.306;8.566;2023-07-20T18:22:23;3.67;;;2.40;;
15061;SDS011;7630;50.306;8.566;2023-07-20T18:26:25;7.63;;;3.13;;
15061;SDS011;7630;50.306;8.566;2023-07-20T18:30:26;4.93;;;2.67;;
15061;SDS011;7630;50.306;8.566;2023-07-20T18:34:28;3.67;;;2.50;;
15061;SDS011;7630;50.306;8.566;2023-07-20T18:38:29;2.50;;;2.00;;
15061;SDS011;7630;50.306;8.566;2023-07-20T18:42:33;4.00;;;2.13;;
15061;SDS011;7630;50.306;8.566;2023-07-20T18:46:35;2.33;;;2.23;;
15061;SDS011;7630;50.306;8.566;2023-07-20T18:50:36;2.87;;;2.63;;
15061;SDS011;7630;50.306;8.566;2023-07-20T18:54:37;2.60;;;2.40;;
15061;SDS011;7630;50.306;8.566;2023-07-20T18:58:38;3.47;;;2.27;;
15061;SDS011;7630;50.306;8.566;2023-07-20T19:02:39;2.40;;;2.20;;
15061;SDS011;7630;50.306;8.566;2023-07-20T19:06:40;4.43;;;2.37;;
15061;SDS011;7630;50.306;8.566;2023-07-20T19:10:42;3.00;;;2.80;;
15061;SDS011;7630;50.306;8.566;2023-07-20T19:14:44;2.83;;;2.63;;
15061;SDS011;7630;50.306;8.566;2023-07-20T19:18:47;3.00;;;2.80;;
15061;SDS011;7630;50.306;8.566;2023-07-20T19:22:49;5.10;;;2.90;;
15061;SDS011;7630;50.306;8.566;2023-07-20T19:26:50;3.07;;;2.87;;
15061;SDS011;7630;50.306;8.566;2023-07-20T19:30:51;3.90;;;3.07;;
15061;SDS011;7630;50.306;8.566;2023-07-20T19:34:52;4.40;;;3.33;;
15061;SDS011;7630;50.306;8.566;2023-07-20T19:38:53;3.70;;;3.47;;
15061;SDS011;7630;50.306;8.566;2023-07-20T19:42:55;3.03;;;2.83;;
15061;SDS011;7630;50.306;8.566;2023-07-20T19:46:56;3.70;;;3.40;;
15061;SDS011;7630;50.306;8.566;2023-07-20T19:50:57;4.83;;;4.33;;
15061;SDS011;7630;50.306;8.566;2023-07-20T19:54:58;4.50;;;4.07;;
15061;SDS011;7630;50.306;8.566;2023-07-20T19:59:02;3.30;;;3.10;;
15061;SDS011;7630;50.306;8.566;2023-07-20T20:03:04;3.53;;;3.23;;
15061;SDS011;7630;50.306;8.566;2023-07-20T20:07:07;5.70;;;3.10;;
15061;SDS011;7630;50.306;8.566;2023-07-20T20:11:10;3.63;;;3.37;;
15061;SDS011;7630;50.306;8.566;2023-07-20T20:15:13;3.97;;;3.67;;
15061;SDS011;7630;50.306;8.566;2023-07-20T20:19:15;6.23;;;3.33;;
15061;SDS011;7630;50.306;8.566;2023-07-20T20:23:17;4.27;;;3.80;;
15061;SDS011;7630;50.306;8.566;2023-07-20T20:27:19;3.50;;;3.30;;
15061;SDS011;7630;50.306;8.566;2023-07-20T20:31:20;5.00;;;4.37;;
15061;SDS011;7630;50.306;8.566;2023-07-20T20:35:21;4.63;;;4.00;;
15061;SDS011;7630;50.306;8.566;2023-07-20T20:39:23;4.83;;;3.40;;
15061;SDS011;7630;50.306;8.566;2023-07-20T20:43:25;7.47;;;4.20;;
15061;SDS011;7630;50.306;8.566;2023-07-20T20:47:28;5.10;;;4.40;;
15061;SDS011;7630;50.306;8.566;2023-07-20T20:51:30;5.17;;;4.77;;
15061;SDS011;7630;50.306;8.566;2023-07-20T20:55:33;5.47;;;4.30;;
15061;SDS011;7630;50.306;8.566;2023-07-20T20:59:34;4.80;;;4.40;;
15061;SDS011;7630;50.306;8.566;2023-07-20T21:03:40;6.13;;;4.03;;
15061;SDS011;7630;50.306;8.566;2023-07-20T21:07:41;3.50;;;3.30;;
15061;SDS011;7630;50.306;8.566;2023-07-20T21:11:43;3.70;;;3.50;;
15061;SDS011;7630;50.306;8.566;2023-07-20T21:15:44;4.03;;;3.63;;
15061;SDS011;7630;50.306;8.566;2023-07-20T21:19:46;4.50;;;4.10;;
15061;SDS011;7630;50.306;8.566;2023-07-20T21:23:47;4.53;;;4.23;;
15061;SDS011;7630;50.306;8.566;2023-07-20T21:27:48;5.27;;;4.53;;
15061;SDS011;7630;50.306;8.566;2023-07-20T21:31:49;5.07;;;4.63;;
15061;SDS011;7630;50.306;8.566;2023-07-20T21:35:51;5.17;;;4.53;;
15061;SDS011;7630;50.306;8.566;2023-07-20T21:39:52;4.63;;;4.33;;
15061;SDS011;7630;50.306;8.566;2023-07-20T21:43:53;4.23;;;3.93;;
15061;SDS011;7630;50.306;8.566;2023-07-20T21:47:54;5.40;;;4.77;;
15061;SDS011;7630;50.306;8.566;2023-07-20T21:51:55;4.97;;;4.67;;
15061;SDS011;7630;50.306;8.566;2023-07-20T21:55:56;4.90;;;4.10;;
15061;SDS011;7630;50.306;8.566;2023-07-20T21:59:57;4.63;;;4.23;;
15061;SDS011;7630;50.306;8.566;2023-07-20T22:03:58;4.37;;;4.07;;
15061;SDS011;7630;50.306;8.566;2023-07-20T22:08:00;4.90;;;4.60;;
15061;SDS011;7630;50.306;8.566;2023-07-20T22:12:02;7.13;;;4.60;;
15061;SDS011;7630;50.306;8.566;2023-07-20T22:16:05;4.10;;;3.83;;
15061;SDS011;7630;50.306;8.566;2023-07-20T22:20:07;4.87;;;4.20;;
15061;SDS011;7630;50.306;8.566;2023-07-20T22:24:09;7.20;;;5.07;;
15061;SDS011;7630;50.306;8.566;2023-07-20T22:28:10;5.57;;;5.07;;
15061;SDS011;7630;50.306;8.566;2023-07-20T22:32:11;5.27;;;4.87;;
15061;SDS011;7630;50.306;8.566;2023-07-20T22:36:12;5.70;;;5.20;;
15061;SDS011;7630;50.306;8.566;2023-07-20T22:40:13;5.70;;;5.23;;
15061;SDS011;7630;50.306;8.566;2023-07-20T22:44:15;5.93;;;5.43;;
15061;SDS011;7630;50.306;8.566;2023-07-20T22:48:16;5.53;;;5.13;;
15061;SDS011;7630;50.306;8.566;2023-07-20T22:52:18;5.73;;;5.40;;
15061;SDS011;7630;50.306;8.566;2023-07-20T22:56:19;4.97;;;4.47;;
15061;SDS011;7630;50.306;8.566;2023-07-20T23:00:20;6.07;;;4.80;;
15061;SDS011;7630;50.306;8.566;2023-07-20T23:04:23;5.70;;;5.20;;
15061;SDS011;7630;50.306;8.566;2023-07-20T23:08:25;5.67;;;5.17;;
15061;SDS011;7630;50.306;8.566;2023-07-20T23:12:26;5.27;;;4.90;;
15061;SDS011;7630;50.306;8.566;2023-07-20T23:16:27;5.67;;;5.17;;
15061;SDS011;7630;50.306;8.566;2023-07-20T23:20:29;5.50;;;5.00;;
15061;SDS011;7630;50.306;8.566;2023-07-20T23:24:30;5.53;;;5.07;;
15061;SDS011;7630;50.306;8.566;2023-07-20T23:28:31;12.13;;;5.20;;
15061;SDS011;7630;50.306;8.566;2023-07-20T23:32:32;7.40;;;5.50;;
15061;SDS011;7630;50.306;8.566;2023-07-20T23:36:34;5.87;;;5.30;;
15061;SDS011;7630;50.306;8.566;2023-07-20T23:40:35;6.97;;;4.87;;
15061;SDS011;7630;50.306;8.566;2023-07-20T23:44:36;5.37;;;4.97;;
15061;SDS011;7630;50.306;8.566;2023-07-20T23:48:39;7.07;;;5.47;;
15061;SDS011;7630;50.306;8.566;2023-07-20T23:52:42;5.37;;;4.97;;
15061;SDS011;7630;50.306;8.566;2023-07-20T23:56:43;6.20;;;5.70;;
